This is the latest recevied weather packets stored in our database for station/object DG5MNJ. If no packets are shown the sender has not sent any weather packets the latest 10 day(s).
| Time | Temp. | Humidity | Pressure | Rain* | Wind** | Luminosity | Snow |
|---|---|---|---|---|---|---|---|
| 1777565702 | 12.78° C | 25% | 1023.6 hPa | 0 mm | - | 316 W/m² | - |
| 1777562401 | 13.33° C | 23% | 1023.5 hPa | 0 mm | - | 492 W/m² | - |
| 1777561803 | 13.33° C | 24% | 1023.7 hPa | 0 mm | - | 522 W/m² | - |
| 1777558522 | 13.89° C | 25% | 1023.5 hPa | 0 mm | - | 666 W/m² | - |
| 1777558202 | 13.33° C | 26% | 1023.5 hPa | 0 mm | - | 678 W/m² | - |
| 1777557902 | 13.33° C | 24% | 1023.6 hPa | 0 mm | - | 692 W/m² | - |
| 1777557602 | 13.33° C | 24% | 1023.8 hPa | 0 mm | - | 706 W/m² | - |
| 1777556702 | 13.33° C | 26% | 1023.8 hPa | 0 mm | - | 738 W/m² | - |
| 1777553102 | 13.33° C | 22% | 1024 hPa | 0 mm | - | 849 W/m² | - |
| 1777552823 | 13.33° C | 23% | 1024 hPa | 0 mm | - | 862 W/m² | - |
| 1777551602 | 13.33° C | 24% | 1024 hPa | 0 mm | - | 876 W/m² | - |
| 1777548002 | 12.22° C | 26% | 1024.3 hPa | 0 mm | - | 917 W/m² | - |
| 1777546802 | 12.22° C | 24% | 1024.4 hPa | 0 mm | - | 920 W/m² | - |
| 1777546502 | 12.22° C | 24% | 1024.6 hPa | 0 mm | - | 916 W/m² | - |
| 1777544402 | 11.11° C | 30% | 1024.8 hPa | 0 mm | - | 899 W/m² | - |
| 1777539903 | 8.89° C | 38% | 1025.1 hPa | 0 mm | - | 799 W/m² | - |
| 1777538702 | 8.33° C | 40% | 1024.8 hPa | 0 mm | - | 762 W/m² | - |
| 1777537502 | 7.78° C | 41% | 1024.8 hPa | 0 mm | - | 717 W/m² | - |
| 1777537202 | 7.78° C | 41% | 1024.7 hPa | 0 mm | - | 706 W/m² | - |
| 1777533302 | 6.11° C | 44% | 1024.7 hPa | 0 mm | - | 528 W/m² | - |
| 1777528802 | 3.89° C | 45% | 1024.4 hPa | 0 mm | - | 299 W/m² | - |
| 1777523103 | 2.78° C | 48% | 1024 hPa | 0 mm | - | 17 W/m² | - |
| 1777520703 | 2.78° C | 47% | 1023.7 hPa | 0 mm | - | 0 W/m² | - |
| 1777520403 | 2.78° C | 47% | 1023.8 hPa | 0 mm | - | 0 W/m² | - |
| 1777518902 | 3.33° C | 46% | 1023.5 hPa | 0 mm | - | 0 W/m² | - |
* Rain latest hour (hover to see other rain measurements)
** Current wind speed in m/s (hover to see current wind gust speed)